sensor_id;sensor_type;location;lat;lon;timestamp;P1;durP1;ratioP1;P2;durP2;ratioP2
5058;SDS011;2548;52.050;11.036;2023-06-24T00:00:48;22.48;;;13.07;;
5058;SDS011;2548;52.050;11.036;2023-06-24T00:03:20;28.60;;;12.35;;
5058;SDS011;2548;52.050;11.036;2023-06-24T00:05:48;21.27;;;13.35;;
5058;SDS011;2548;52.050;11.036;2023-06-24T00:08:20;23.63;;;12.38;;
5058;SDS011;2548;52.050;11.036;2023-06-24T00:10:49;30.48;;;12.77;;
5058;SDS011;2548;52.050;11.036;2023-06-24T00:13:17;20.65;;;12.50;;
5058;SDS011;2548;52.050;11.036;2023-06-24T00:15:50;27.83;;;11.80;;
5058;SDS011;2548;52.050;11.036;2023-06-24T00:18:20;22.52;;;12.23;;
5058;SDS011;2548;52.050;11.036;2023-06-24T00:20:54;16.15;;;11.98;;
5058;SDS011;2548;52.050;11.036;2023-06-24T00:23:22;21.35;;;12.32;;
5058;SDS011;2548;52.050;11.036;2023-06-24T00:25:58;17.40;;;11.50;;
5058;SDS011;2548;52.050;11.036;2023-06-24T00:28:28;18.38;;;11.60;;
5058;SDS011;2548;52.050;11.036;2023-06-24T00:30:55;20.02;;;13.00;;
5058;SDS011;2548;52.050;11.036;2023-06-24T00:33:24;23.00;;;13.85;;
5058;SDS011;2548;52.050;11.036;2023-06-24T00:35:51;20.45;;;11.98;;
5058;SDS011;2548;52.050;11.036;2023-06-24T00:38:20;19.83;;;12.20;;
5058;SDS011;2548;52.050;11.036;2023-06-24T00:40:47;20.65;;;11.88;;
5058;SDS011;2548;52.050;11.036;2023-06-24T00:43:16;21.65;;;12.60;;
5058;SDS011;2548;52.050;11.036;2023-06-24T00:45:45;18.60;;;12.60;;
5058;SDS011;2548;52.050;11.036;2023-06-24T00:48:14;16.35;;;11.68;;
5058;SDS011;2548;52.050;11.036;2023-06-24T00:50:42;26.15;;;12.20;;
5058;SDS011;2548;52.050;11.036;2023-06-24T00:53:13;25.60;;;13.23;;
5058;SDS011;2548;52.050;11.036;2023-06-24T00:55:44;19.23;;;12.43;;
5058;SDS011;2548;52.050;11.036;2023-06-24T00:58:14;20.02;;;11.50;;
5058;SDS011;2548;52.050;11.036;2023-06-24T01:00:46;16.45;;;12.10;;
5058;SDS011;2548;52.050;11.036;2023-06-24T01:03:32;14.80;;;11.45;;
5058;SDS011;2548;52.050;11.036;2023-06-24T01:06:07;16.17;;;11.30;;
5058;SDS011;2548;52.050;11.036;2023-06-24T01:08:36;25.67;;;12.05;;
5058;SDS011;2548;52.050;11.036;2023-06-24T01:11:03;30.88;;;11.90;;
5058;SDS011;2548;52.050;11.036;2023-06-24T01:13:38;23.52;;;12.35;;
5058;SDS011;2548;52.050;11.036;2023-06-24T01:16:07;13.98;;;11.30;;
5058;SDS011;2548;52.050;11.036;2023-06-24T01:18:40;23.05;;;11.43;;
5058;SDS011;2548;52.050;11.036;2023-06-24T01:21:15;28.58;;;11.85;;
5058;SDS011;2548;52.050;11.036;2023-06-24T01:24:04;25.23;;;12.38;;
5058;SDS011;2548;52.050;11.036;2023-06-24T01:33:04;20.85;;;12.13;;
5058;SDS011;2548;52.050;11.036;2023-06-24T01:35:36;16.75;;;12.65;;
5058;SDS011;2548;52.050;11.036;2023-06-24T01:38:09;23.95;;;11.35;;
5058;SDS011;2548;52.050;11.036;2023-06-24T01:40:43;17.88;;;12.68;;
5058;SDS011;2548;52.050;11.036;2023-06-24T01:43:13;27.95;;;13.65;;
5058;SDS011;2548;52.050;11.036;2023-06-24T01:45:45;21.17;;;13.25;;
5058;SDS011;2548;52.050;11.036;2023-06-24T01:48:25;22.17;;;13.45;;
5058;SDS011;2548;52.050;11.036;2023-06-24T01:50:55;24.98;;;13.45;;
5058;SDS011;2548;52.050;11.036;2023-06-24T01:53:26;23.67;;;12.82;;
5058;SDS011;2548;52.050;11.036;2023-06-24T01:55:56;21.33;;;11.88;;
5058;SDS011;2548;52.050;11.036;2023-06-24T01:58:26;21.35;;;12.27;;
5058;SDS011;2548;52.050;11.036;2023-06-24T02:00:54;21.00;;;11.40;;
5058;SDS011;2548;52.050;11.036;2023-06-24T02:03:24;19.83;;;12.18;;
5058;SDS011;2548;52.050;11.036;2023-06-24T02:05:53;25.95;;;12.07;;
5058;SDS011;2548;52.050;11.036;2023-06-24T02:08:23;32.55;;;11.65;;
5058;SDS011;2548;52.050;11.036;2023-06-24T02:10:52;20.92;;;12.25;;
5058;SDS011;2548;52.050;11.036;2023-06-24T02:13:22;30.95;;;12.43;;
5058;SDS011;2548;52.050;11.036;2023-06-24T02:15:50;22.38;;;12.40;;
5058;SDS011;2548;52.050;11.036;2023-06-24T02:18:19;30.13;;;12.55;;
5058;SDS011;2548;52.050;11.036;2023-06-24T02:20:50;19.90;;;11.77;;
5058;SDS011;2548;52.050;11.036;2023-06-24T02:23:18;19.35;;;11.68;;
5058;SDS011;2548;52.050;11.036;2023-06-24T02:25:47;16.48;;;10.90;;
5058;SDS011;2548;52.050;11.036;2023-06-24T02:28:16;25.73;;;12.05;;
5058;SDS011;2548;52.050;11.036;2023-06-24T02:30:45;23.38;;;12.48;;
5058;SDS011;2548;52.050;11.036;2023-06-24T02:33:14;24.52;;;12.40;;
5058;SDS011;2548;52.050;11.036;2023-06-24T02:35:44;18.67;;;11.23;;
5058;SDS011;2548;52.050;11.036;2023-06-24T02:38:13;21.33;;;11.00;;
5058;SDS011;2548;52.050;11.036;2023-06-24T02:40:42;23.75;;;12.57;;
5058;SDS011;2548;52.050;11.036;2023-06-24T02:43:10;22.90;;;10.48;;
5058;SDS011;2548;52.050;11.036;2023-06-24T02:45:38;34.58;;;12.70;;
5058;SDS011;2548;52.050;11.036;2023-06-24T02:48:06;23.70;;;11.32;;
5058;SDS011;2548;52.050;11.036;2023-06-24T02:50:37;21.30;;;11.70;;
5058;SDS011;2548;52.050;11.036;2023-06-24T02:53:06;24.45;;;11.75;;
5058;SDS011;2548;52.050;11.036;2023-06-24T02:55:38;19.25;;;12.18;;
5058;SDS011;2548;52.050;11.036;2023-06-24T02:58:07;19.42;;;11.60;;
5058;SDS011;2548;52.050;11.036;2023-06-24T03:00:52;25.15;;;11.02;;
5058;SDS011;2548;52.050;11.036;2023-06-24T03:03:29;22.38;;;12.02;;
5058;SDS011;2548;52.050;11.036;2023-06-24T03:05:57;17.52;;;11.55;;
5058;SDS011;2548;52.050;11.036;2023-06-24T03:08:29;20.27;;;11.13;;
5058;SDS011;2548;52.050;11.036;2023-06-24T03:10:58;17.73;;;14.23;;
5058;SDS011;2548;52.050;11.036;2023-06-24T03:13:28;13.82;;;11.25;;
5058;SDS011;2548;52.050;11.036;2023-06-24T03:16:18;17.23;;;12.10;;
5058;SDS011;2548;52.050;11.036;2023-06-24T03:18:55;23.00;;;13.13;;
5058;SDS011;2548;52.050;11.036;2023-06-24T03:21:23;14.55;;;11.38;;
5058;SDS011;2548;52.050;11.036;2023-06-24T03:23:57;15.02;;;12.38;;
5058;SDS011;2548;52.050;11.036;2023-06-24T03:26:32;22.20;;;14.40;;
5058;SDS011;2548;52.050;11.036;2023-06-24T03:29:00;21.45;;;14.13;;
5058;SDS011;2548;52.050;11.036;2023-06-24T03:31:28;21.23;;;12.70;;
5058;SDS011;2548;52.050;11.036;2023-06-24T03:33:56;26.15;;;14.25;;
5058;SDS011;2548;52.050;11.036;2023-06-24T03:36:25;19.85;;;14.20;;
5058;SDS011;2548;52.050;11.036;2023-06-24T03:38:53;16.70;;;12.07;;
5058;SDS011;2548;52.050;11.036;2023-06-24T03:41:20;20.08;;;12.73;;
5058;SDS011;2548;52.050;11.036;2023-06-24T03:43:49;26.13;;;13.55;;
5058;SDS011;2548;52.050;11.036;2023-06-24T03:46:18;21.25;;;14.60;;
5058;SDS011;2548;52.050;11.036;2023-06-24T03:48:45;19.88;;;13.57;;
5058;SDS011;2548;52.050;11.036;2023-06-24T03:51:13;24.55;;;13.68;;
5058;SDS011;2548;52.050;11.036;2023-06-24T03:53:41;29.67;;;12.73;;
5058;SDS011;2548;52.050;11.036;2023-06-24T03:56:09;20.02;;;13.15;;
5058;SDS011;2548;52.050;11.036;2023-06-24T03:58:36;23.58;;;12.95;;
5058;SDS011;2548;52.050;11.036;2023-06-24T04:01:05;31.92;;;14.30;;
5058;SDS011;2548;52.050;11.036;2023-06-24T04:03:35;19.88;;;13.05;;
5058;SDS011;2548;52.050;11.036;2023-06-24T04:06:02;22.25;;;13.90;;
5058;SDS011;2548;52.050;11.036;2023-06-24T04:08:30;24.88;;;15.05;;
5058;SDS011;2548;52.050;11.036;2023-06-24T04:10:59;23.50;;;12.55;;
5058;SDS011;2548;52.050;11.036;2023-06-24T04:13:29;24.75;;;15.48;;
5058;SDS011;2548;52.050;11.036;2023-06-24T04:15:56;20.90;;;12.52;;
5058;SDS011;2548;52.050;11.036;2023-06-24T04:18:25;18.65;;;13.02;;
5058;SDS011;2548;52.050;11.036;2023-06-24T04:20:53;17.35;;;12.32;;
5058;SDS011;2548;52.050;11.036;2023-06-24T04:23:21;20.38;;;12.70;;
5058;SDS011;2548;52.050;11.036;2023-06-24T04:25:49;21.13;;;13.23;;
5058;SDS011;2548;52.050;11.036;2023-06-24T04:28:17;19.50;;;11.00;;
5058;SDS011;2548;52.050;11.036;2023-06-24T04:30:44;20.67;;;13.73;;
5058;SDS011;2548;52.050;11.036;2023-06-24T04:33:12;16.98;;;12.90;;
5058;SDS011;2548;52.050;11.036;2023-06-24T04:35:41;24.88;;;12.85;;
5058;SDS011;2548;52.050;11.036;2023-06-24T04:38:09;17.90;;;13.32;;
5058;SDS011;2548;52.050;11.036;2023-06-24T04:40:37;19.27;;;13.65;;
5058;SDS011;2548;52.050;11.036;2023-06-24T04:43:04;28.63;;;14.30;;
5058;SDS011;2548;52.050;11.036;2023-06-24T04:45:32;29.73;;;14.32;;
5058;SDS011;2548;52.050;11.036;2023-06-24T04:48:00;20.00;;;14.43;;
5058;SDS011;2548;52.050;11.036;2023-06-24T04:50:28;25.10;;;13.60;;
5058;SDS011;2548;52.050;11.036;2023-06-24T04:52:57;20.33;;;14.18;;
5058;SDS011;2548;52.050;11.036;2023-06-24T04:55:27;32.90;;;14.27;;
5058;SDS011;2548;52.050;11.036;2023-06-24T04:57:56;27.50;;;15.98;;
5058;SDS011;2548;52.050;11.036;2023-06-24T05:00:23;18.30;;;14.25;;
5058;SDS011;2548;52.050;11.036;2023-06-24T05:02:51;22.20;;;14.48;;
5058;SDS011;2548;52.050;11.036;2023-06-24T05:05:18;23.40;;;13.70;;
5058;SDS011;2548;52.050;11.036;2023-06-24T05:07:47;25.48;;;15.75;;
5058;SDS011;2548;52.050;11.036;2023-06-24T05:10:16;23.77;;;16.10;;
5058;SDS011;2548;52.050;11.036;2023-06-24T05:12:43;18.25;;;15.27;;
5058;SDS011;2548;52.050;11.036;2023-06-24T05:15:10;25.55;;;15.52;;
5058;SDS011;2548;52.050;11.036;2023-06-24T05:17:38;29.70;;;14.77;;
5058;SDS011;2548;52.050;11.036;2023-06-24T05:20:06;24.55;;;14.68;;
5058;SDS011;2548;52.050;11.036;2023-06-24T05:22:35;23.10;;;13.80;;
5058;SDS011;2548;52.050;11.036;2023-06-24T05:25:02;19.08;;;15.25;;
5058;SDS011;2548;52.050;11.036;2023-06-24T05:27:32;25.88;;;14.82;;
5058;SDS011;2548;52.050;11.036;2023-06-24T05:29:59;30.40;;;17.45;;
5058;SDS011;2548;52.050;11.036;2023-06-24T05:32:27;20.92;;;15.30;;
5058;SDS011;2548;52.050;11.036;2023-06-24T05:34:54;25.83;;;14.30;;
5058;SDS011;2548;52.050;11.036;2023-06-24T05:37:22;20.90;;;14.10;;
5058;SDS011;2548;52.050;11.036;2023-06-24T05:39:49;23.88;;;16.23;;
5058;SDS011;2548;52.050;11.036;2023-06-24T05:42:16;23.75;;;16.27;;
5058;SDS011;2548;52.050;11.036;2023-06-24T05:44:45;22.17;;;16.33;;
5058;SDS011;2548;52.050;11.036;2023-06-24T05:47:13;26.25;;;15.48;;
5058;SDS011;2548;52.050;11.036;2023-06-24T05:49:40;18.42;;;14.80;;
5058;SDS011;2548;52.050;11.036;2023-06-24T05:52:08;22.83;;;15.00;;
5058;SDS011;2548;52.050;11.036;2023-06-24T05:54:35;18.83;;;14.50;;
5058;SDS011;2548;52.050;11.036;2023-06-24T05:57:03;17.63;;;13.45;;
5058;SDS011;2548;52.050;11.036;2023-06-24T05:59:32;28.60;;;15.93;;
5058;SDS011;2548;52.050;11.036;2023-06-24T06:02:00;24.70;;;14.63;;
5058;SDS011;2548;52.050;11.036;2023-06-24T06:04:28;17.90;;;15.45;;
5058;SDS011;2548;52.050;11.036;2023-06-24T06:06:55;20.42;;;14.30;;
5058;SDS011;2548;52.050;11.036;2023-06-24T06:09:23;20.50;;;15.07;;
5058;SDS011;2548;52.050;11.036;2023-06-24T06:11:50;26.67;;;15.23;;
5058;SDS011;2548;52.050;11.036;2023-06-24T06:14:18;22.23;;;16.05;;
5058;SDS011;2548;52.050;11.036;2023-06-24T06:16:45;18.35;;;15.38;;
5058;SDS011;2548;52.050;11.036;2023-06-24T06:19:14;26.15;;;17.23;;
5058;SDS011;2548;52.050;11.036;2023-06-24T06:21:41;17.10;;;15.23;;
5058;SDS011;2548;52.050;11.036;2023-06-24T06:24:09;22.77;;;16.38;;
5058;SDS011;2548;52.050;11.036;2023-06-24T06:26:40;25.85;;;15.00;;
5058;SDS011;2548;52.050;11.036;2023-06-24T06:29:09;20.10;;;15.65;;
5058;SDS011;2548;52.050;11.036;2023-06-24T06:31:36;22.10;;;16.33;;
5058;SDS011;2548;52.050;11.036;2023-06-24T06:34:05;20.13;;;14.80;;
5058;SDS011;2548;52.050;11.036;2023-06-24T06:36:33;23.17;;;15.95;;
5058;SDS011;2548;52.050;11.036;2023-06-24T06:39:01;29.08;;;17.15;;
5058;SDS011;2548;52.050;11.036;2023-06-24T06:41:28;26.85;;;15.73;;
5058;SDS011;2548;52.050;11.036;2023-06-24T06:43:56;21.83;;;15.77;;
5058;SDS011;2548;52.050;11.036;2023-06-24T06:46:23;21.98;;;15.48;;
5058;SDS011;2548;52.050;11.036;2023-06-24T06:48:51;19.45;;;13.98;;
5058;SDS011;2548;52.050;11.036;2023-06-24T06:51:18;22.83;;;15.40;;
5058;SDS011;2548;52.050;11.036;2023-06-24T06:53:47;20.35;;;13.93;;
5058;SDS011;2548;52.050;11.036;2023-06-24T06:56:18;20.92;;;15.13;;
5058;SDS011;2548;52.050;11.036;2023-06-24T06:58:45;23.70;;;14.93;;
5058;SDS011;2548;52.050;11.036;2023-06-24T07:01:13;20.95;;;13.45;;
5058;SDS011;2548;52.050;11.036;2023-06-24T07:03:40;17.48;;;13.30;;
5058;SDS011;2548;52.050;11.036;2023-06-24T07:06:08;17.63;;;14.20;;
5058;SDS011;2548;52.050;11.036;2023-06-24T07:08:35;22.45;;;14.50;;
5058;SDS011;2548;52.050;11.036;2023-06-24T07:11:04;19.33;;;13.38;;
5058;SDS011;2548;52.050;11.036;2023-06-24T07:13:32;24.10;;;13.27;;
5058;SDS011;2548;52.050;11.036;2023-06-24T07:15:59;17.33;;;13.45;;
5058;SDS011;2548;52.050;11.036;2023-06-24T07:18:26;16.50;;;14.68;;
5058;SDS011;2548;52.050;11.036;2023-06-24T07:20:56;19.88;;;12.73;;
5058;SDS011;2548;52.050;11.036;2023-06-24T07:23:23;13.40;;;12.07;;
5058;SDS011;2548;52.050;11.036;2023-06-24T07:25:51;17.55;;;11.88;;
5058;SDS011;2548;52.050;11.036;2023-06-24T07:28:20;20.23;;;12.00;;
5058;SDS011;2548;52.050;11.036;2023-06-24T07:30:47;14.50;;;11.90;;
5058;SDS011;2548;52.050;11.036;2023-06-24T07:33:15;12.90;;;11.03;;
5058;SDS011;2548;52.050;11.036;2023-06-24T07:35:42;13.20;;;10.63;;
5058;SDS011;2548;52.050;11.036;2023-06-24T07:38:09;22.38;;;11.40;;
5058;SDS011;2548;52.050;11.036;2023-06-24T07:40:38;18.77;;;11.73;;
5058;SDS011;2548;52.050;11.036;2023-06-24T07:43:05;14.20;;;11.33;;
5058;SDS011;2548;52.050;11.036;2023-06-24T07:45:34;23.48;;;13.07;;
5058;SDS011;2548;52.050;11.036;2023-06-24T07:48:01;13.10;;;11.47;;
5058;SDS011;2548;52.050;11.036;2023-06-24T07:50:30;13.57;;;12.17;;
5058;SDS011;2548;52.050;11.036;2023-06-24T07:52:58;15.70;;;12.52;;
5058;SDS011;2548;52.050;11.036;2023-06-24T07:55:25;13.10;;;10.70;;
5058;SDS011;2548;52.050;11.036;2023-06-24T07:57:53;10.40;;;9.50;;
5058;SDS011;2548;52.050;11.036;2023-06-24T08:00:20;11.80;;;10.60;;
5058;SDS011;2548;52.050;11.036;2023-06-24T08:02:49;11.77;;;10.43;;
5058;SDS011;2548;52.050;11.036;2023-06-24T08:05:17;16.83;;;10.43;;
5058;SDS011;2548;52.050;11.036;2023-06-24T08:07:46;11.77;;;10.60;;
5058;SDS011;2548;52.050;11.036;2023-06-24T08:10:13;10.77;;;9.77;;
5058;SDS011;2548;52.050;11.036;2023-06-24T08:12:41;11.53;;;10.33;;
5058;SDS011;2548;52.050;11.036;2023-06-24T08:15:09;12.30;;;9.80;;
5058;SDS011;2548;52.050;11.036;2023-06-24T08:17:36;12.03;;;10.83;;
5058;SDS011;2548;52.050;11.036;2023-06-24T08:20:06;11.20;;;8.43;;
5058;SDS011;2548;52.050;11.036;2023-06-24T08:22:34;12.43;;;9.30;;
5058;SDS011;2548;52.050;11.036;2023-06-24T08:25:01;11.10;;;9.23;;
5058;SDS011;2548;52.050;11.036;2023-06-24T08:27:29;10.20;;;9.20;;
5058;SDS011;2548;52.050;11.036;2023-06-24T08:29:56;12.47;;;11.23;;
5058;SDS011;2548;52.050;11.036;2023-06-24T08:32:23;17.63;;;10.10;;
5058;SDS011;2548;52.050;11.036;2023-06-24T08:34:51;12.50;;;10.20;;
5058;SDS011;2548;52.050;11.036;2023-06-24T08:37:20;11.70;;;9.20;;
5058;SDS011;2548;52.050;11.036;2023-06-24T08:39:47;14.90;;;8.70;;
5058;SDS011;2548;52.050;11.036;2023-06-24T08:42:15;16.97;;;9.93;;
5058;SDS011;2548;52.050;11.036;2023-06-24T08:44:42;12.77;;;11.03;;
5058;SDS011;2548;52.050;11.036;2023-06-24T08:47:09;13.33;;;11.50;;
5058;SDS011;2548;52.050;11.036;2023-06-24T08:49:42;12.40;;;10.60;;
5058;SDS011;2548;52.050;11.036;2023-06-24T08:52:16;13.00;;;9.90;;
5058;SDS011;2548;52.050;11.036;2023-06-24T08:54:46;9.23;;;8.27;;
5058;SDS011;2548;52.050;11.036;2023-06-24T08:57:17;9.17;;;8.37;;
5058;SDS011;2548;52.050;11.036;2023-06-24T08:59:44;8.90;;;8.00;;
5058;SDS011;2548;52.050;11.036;2023-06-24T09:02:13;9.20;;;8.10;;
5058;SDS011;2548;52.050;11.036;2023-06-24T09:04:40;9.60;;;8.70;;
5058;SDS011;2548;52.050;11.036;2023-06-24T09:07:08;10.00;;;9.00;;
5058;SDS011;2548;52.050;11.036;2023-06-24T09:09:41;10.07;;;8.27;;
5058;SDS011;2548;52.050;11.036;2023-06-24T09:12:12;10.37;;;9.30;;
5058;SDS011;2548;52.050;11.036;2023-06-24T09:14:41;8.47;;;7.17;;
5058;SDS011;2548;52.050;11.036;2023-06-24T09:17:14;11.13;;;8.00;;
5058;SDS011;2548;52.050;11.036;2023-06-24T09:19:41;10.70;;;7.87;;
5058;SDS011;2548;52.050;11.036;2023-06-24T09:22:09;13.27;;;10.43;;
5058;SDS011;2548;52.050;11.036;2023-06-24T09:24:42;13.70;;;9.87;;
5058;SDS011;2548;52.050;11.036;2023-06-24T09:27:13;13.60;;;9.47;;
5058;SDS011;2548;52.050;11.036;2023-06-24T09:29:42;14.43;;;8.20;;
5058;SDS011;2548;52.050;11.036;2023-06-24T09:32:10;13.10;;;7.70;;
5058;SDS011;2548;52.050;11.036;2023-06-24T09:34:38;9.40;;;8.50;;
5058;SDS011;2548;52.050;11.036;2023-06-24T09:37:06;10.40;;;6.83;;
5058;SDS011;2548;52.050;11.036;2023-06-24T09:39:36;8.20;;;6.37;;
5058;SDS011;2548;52.050;11.036;2023-06-24T09:42:05;15.23;;;8.90;;
5058;SDS011;2548;52.050;11.036;2023-06-24T09:44:35;11.70;;;9.97;;
5058;SDS011;2548;52.050;11.036;2023-06-24T09:47:02;9.90;;;8.03;;
5058;SDS011;2548;52.050;11.036;2023-06-24T09:49:30;14.03;;;7.50;;
5058;SDS011;2548;52.050;11.036;2023-06-24T09:51:58;15.00;;;8.13;;
5058;SDS011;2548;52.050;11.036;2023-06-24T09:54:26;11.53;;;7.83;;
5058;SDS011;2548;52.050;11.036;2023-06-24T09:56:55;9.00;;;7.83;;
5058;SDS011;2548;52.050;11.036;2023-06-24T09:59:28;9.40;;;8.13;;
5058;SDS011;2548;52.050;11.036;2023-06-24T10:02:00;9.80;;;8.83;;
5058;SDS011;2548;52.050;11.036;2023-06-24T10:04:30;11.50;;;8.07;;
5058;SDS011;2548;52.050;11.036;2023-06-24T10:06:59;21.80;;;8.30;;
5058;SDS011;2548;52.050;11.036;2023-06-24T10:09:28;13.60;;;9.60;;
5058;SDS011;2548;52.050;11.036;2023-06-24T10:11:55;20.43;;;8.40;;
5058;SDS011;2548;52.050;11.036;2023-06-24T10:14:23;8.27;;;7.47;;
5058;SDS011;2548;52.050;11.036;2023-06-24T10:16:51;6.00;;;5.57;;
5058;SDS011;2548;52.050;11.036;2023-06-24T10:19:20;9.07;;;8.10;;
5058;SDS011;2548;52.050;11.036;2023-06-24T10:21:50;8.87;;;7.40;;
5058;SDS011;2548;52.050;11.036;2023-06-24T10:24:28;10.70;;;8.80;;
5058;SDS011;2548;52.050;11.036;2023-06-24T10:27:00;9.07;;;7.33;;
5058;SDS011;2548;52.050;11.036;2023-06-24T10:32:04;8.23;;;6.27;;
5058;SDS011;2548;52.050;11.036;2023-06-24T10:34:34;12.80;;;7.27;;
5058;SDS011;2548;52.050;11.036;2023-06-24T10:37:08;9.73;;;6.77;;
5058;SDS011;2548;52.050;11.036;2023-06-24T10:39:37;8.20;;;6.00;;
5058;SDS011;2548;52.050;11.036;2023-06-24T10:42:31;7.90;;;6.40;;
5058;SDS011;2548;52.050;11.036;2023-06-24T10:45:00;9.27;;;6.20;;
5058;SDS011;2548;52.050;11.036;2023-06-24T10:47:29;5.67;;;5.17;;
5058;SDS011;2548;52.050;11.036;2023-06-24T10:49:58;7.47;;;5.97;;
5058;SDS011;2548;52.050;11.036;2023-06-24T10:52:25;6.10;;;5.60;;
5058;SDS011;2548;52.050;11.036;2023-06-24T10:54:53;5.77;;;4.90;;
5058;SDS011;2548;52.050;11.036;2023-06-24T10:57:21;10.93;;;6.50;;
5058;SDS011;2548;52.050;11.036;2023-06-24T10:59:50;6.00;;;5.40;;
5058;SDS011;2548;52.050;11.036;2023-06-24T11:02:19;5.37;;;4.83;;
5058;SDS011;2548;52.050;11.036;2023-06-24T11:04:47;5.50;;;5.10;;
5058;SDS011;2548;52.050;11.036;2023-06-24T11:07:18;6.07;;;5.50;;
5058;SDS011;2548;52.050;11.036;2023-06-24T11:09:49;5.93;;;5.33;;
5058;SDS011;2548;52.050;11.036;2023-06-24T11:12:18;6.47;;;5.87;;
5058;SDS011;2548;52.050;11.036;2023-06-24T11:14:46;7.33;;;5.17;;
5058;SDS011;2548;52.050;11.036;2023-06-24T11:17:13;6.53;;;5.43;;
5058;SDS011;2548;52.050;11.036;2023-06-24T11:19:40;6.27;;;5.13;;
5058;SDS011;2548;52.050;11.036;2023-06-24T11:22:09;5.13;;;4.07;;
5058;SDS011;2548;52.050;11.036;2023-06-24T11:24:38;5.67;;;5.17;;
5058;SDS011;2548;52.050;11.036;2023-06-24T11:27:07;5.60;;;5.10;;
5058;SDS011;2548;52.050;11.036;2023-06-24T11:29:35;4.73;;;4.43;;
5058;SDS011;2548;52.050;11.036;2023-06-24T11:32:02;7.60;;;4.60;;
5058;SDS011;2548;52.050;11.036;2023-06-24T11:34:33;4.63;;;4.23;;
5058;SDS011;2548;52.050;11.036;2023-06-24T11:37:08;5.23;;;4.73;;
5058;SDS011;2548;52.050;11.036;2023-06-24T11:39:39;5.23;;;4.20;;
5058;SDS011;2548;52.050;11.036;2023-06-24T11:42:06;4.53;;;4.30;;
5058;SDS011;2548;52.050;11.036;2023-06-24T11:44:35;9.40;;;4.00;;
5058;SDS011;2548;52.050;11.036;2023-06-24T11:47:03;4.47;;;4.20;;
5058;SDS011;2548;52.050;11.036;2023-06-24T11:49:31;4.63;;;4.27;;
5058;SDS011;2548;52.050;11.036;2023-06-24T11:51:59;5.43;;;4.93;;
5058;SDS011;2548;52.050;11.036;2023-06-24T11:54:26;4.50;;;4.20;;
5058;SDS011;2548;52.050;11.036;2023-06-24T11:56:55;6.47;;;4.77;;
5058;SDS011;2548;52.050;11.036;2023-06-24T11:59:23;4.13;;;3.93;;
5058;SDS011;2548;52.050;11.036;2023-06-24T12:01:53;5.20;;;4.80;;
5058;SDS011;2548;52.050;11.036;2023-06-24T12:04:27;5.37;;;4.20;;
5058;SDS011;2548;52.050;11.036;2023-06-24T12:06:55;4.73;;;4.33;;
5058;SDS011;2548;52.050;11.036;2023-06-24T12:09:22;5.00;;;4.60;;
5058;SDS011;2548;52.050;11.036;2023-06-24T12:11:50;4.50;;;4.10;;
5058;SDS011;2548;52.050;11.036;2023-06-24T12:14:20;5.17;;;4.67;;
5058;SDS011;2548;52.050;11.036;2023-06-24T12:16:47;5.47;;;4.13;;
5058;SDS011;2548;52.050;11.036;2023-06-24T12:19:15;3.63;;;3.37;;
5058;SDS011;2548;52.050;11.036;2023-06-24T12:21:42;4.43;;;4.13;;
5058;SDS011;2548;52.050;11.036;2023-06-24T12:24:10;4.90;;;4.50;;
5058;SDS011;2548;52.050;11.036;2023-06-24T12:26:38;4.30;;;3.70;;
5058;SDS011;2548;52.050;11.036;2023-06-24T12:29:06;5.97;;;4.17;;
5058;SDS011;2548;52.050;11.036;2023-06-24T12:31:35;4.37;;;4.03;;
5058;SDS011;2548;52.050;11.036;2023-06-24T12:34:02;4.80;;;4.40;;
5058;SDS011;2548;52.050;11.036;2023-06-24T12:36:31;4.17;;;3.87;;
5058;SDS011;2548;52.050;11.036;2023-06-24T12:38:58;4.10;;;3.90;;
5058;SDS011;2548;52.050;11.036;2023-06-24T12:41:25;4.67;;;4.37;;
5058;SDS011;2548;52.050;11.036;2023-06-24T12:43:53;4.60;;;4.30;;
5058;SDS011;2548;52.050;11.036;2023-06-24T12:46:21;4.13;;;3.80;;
5058;SDS011;2548;52.050;11.036;2023-06-24T12:48:50;5.43;;;4.53;;
5058;SDS011;2548;52.050;11.036;2023-06-24T12:51:17;4.37;;;3.90;;
5058;SDS011;2548;52.050;11.036;2023-06-24T12:53:44;3.80;;;3.60;;
5058;SDS011;2548;52.050;11.036;2023-06-24T12:56:12;5.43;;;3.50;;
5058;SDS011;2548;52.050;11.036;2023-06-24T12:58:39;4.30;;;4.00;;
5058;SDS011;2548;52.050;11.036;2023-06-24T13:01:06;4.00;;;3.60;;
5058;SDS011;2548;52.050;11.036;2023-06-24T13:03:34;4.13;;;3.40;;
5058;SDS011;2548;52.050;11.036;2023-06-24T13:06:03;4.10;;;3.70;;
5058;SDS011;2548;52.050;11.036;2023-06-24T13:08:30;3.77;;;3.40;;
5058;SDS011;2548;52.050;11.036;2023-06-24T13:10:58;3.83;;;3.40;;
5058;SDS011;2548;52.050;11.036;2023-06-24T13:13:26;3.43;;;3.23;;
5058;SDS011;2548;52.050;11.036;2023-06-24T13:15:53;12.10;;;4.10;;
5058;SDS011;2548;52.050;11.036;2023-06-24T13:18:21;3.33;;;3.13;;
5058;SDS011;2548;52.050;11.036;2023-06-24T13:20:48;9.40;;;3.73;;
5058;SDS011;2548;52.050;11.036;2023-06-24T13:23:17;4.70;;;3.60;;
5058;SDS011;2548;52.050;11.036;2023-06-24T13:25:45;4.23;;;3.93;;
5058;SDS011;2548;52.050;11.036;2023-06-24T13:28:12;5.73;;;4.23;;
5058;SDS011;2548;52.050;11.036;2023-06-24T13:30:40;4.10;;;3.73;;
5058;SDS011;2548;52.050;11.036;2023-06-24T13:33:07;7.57;;;4.17;;
5058;SDS011;2548;52.050;11.036;2023-06-24T13:35:35;3.70;;;3.50;;
5058;SDS011;2548;52.050;11.036;2023-06-24T13:38:02;3.90;;;3.70;;
5058;SDS011;2548;52.050;11.036;2023-06-24T13:40:31;4.00;;;3.53;;
5058;SDS011;2548;52.050;11.036;2023-06-24T13:43:00;5.63;;;3.53;;
5058;SDS011;2548;52.050;11.036;2023-06-24T13:45:27;3.77;;;3.47;;
5058;SDS011;2548;52.050;11.036;2023-06-24T13:47:55;6.83;;;3.50;;
5058;SDS011;2548;52.050;11.036;2023-06-24T13:50:22;4.17;;;3.87;;
5058;SDS011;2548;52.050;11.036;2023-06-24T13:52:49;5.20;;;3.53;;
5058;SDS011;2548;52.050;11.036;2023-06-24T13:55:17;4.53;;;4.20;;
5058;SDS011;2548;52.050;11.036;2023-06-24T13:57:46;5.63;;;3.53;;
5058;SDS011;2548;52.050;11.036;2023-06-24T14:00:14;4.30;;;3.97;;
5058;SDS011;2548;52.050;11.036;2023-06-24T14:02:49;7.73;;;3.90;;
5058;SDS011;2548;52.050;11.036;2023-06-24T14:05:17;4.20;;;3.90;;
5058;SDS011;2548;52.050;11.036;2023-06-24T14:07:45;4.03;;;3.83;;
5058;SDS011;2548;52.050;11.036;2023-06-24T14:10:12;3.50;;;3.30;;
5058;SDS011;2548;52.050;11.036;2023-06-24T14:12:40;4.37;;;4.07;;
5058;SDS011;2548;52.050;11.036;2023-06-24T14:15:10;3.97;;;3.37;;
5058;SDS011;2548;52.050;11.036;2023-06-24T14:17:37;3.50;;;3.20;;
5058;SDS011;2548;52.050;11.036;2023-06-24T14:20:08;4.00;;;3.80;;
5058;SDS011;2548;52.050;11.036;2023-06-24T14:22:36;3.67;;;3.50;;
5058;SDS011;2548;52.050;11.036;2023-06-24T14:25:05;3.90;;;3.67;;
5058;SDS011;2548;52.050;11.036;2023-06-24T14:27:36;4.20;;;3.80;;
5058;SDS011;2548;52.050;11.036;2023-06-24T14:30:13;4.30;;;3.70;;
5058;SDS011;2548;52.050;11.036;2023-06-24T14:32:41;4.03;;;3.67;;
5058;SDS011;2548;52.050;11.036;2023-06-24T14:35:09;5.33;;;4.27;;
5058;SDS011;2548;52.050;11.036;2023-06-24T14:37:36;4.13;;;3.83;;
5058;SDS011;2548;52.050;11.036;2023-06-24T14:40:07;4.07;;;3.77;;
5058;SDS011;2548;52.050;11.036;2023-06-24T14:42:35;4.57;;;4.17;;
5058;SDS011;2548;52.050;11.036;2023-06-24T14:45:03;3.60;;;3.40;;
5058;SDS011;2548;52.050;11.036;2023-06-24T14:47:32;3.70;;;3.53;;
5058;SDS011;2548;52.050;11.036;2023-06-24T14:50:00;6.10;;;3.50;;
5058;SDS011;2548;52.050;11.036;2023-06-24T14:52:37;6.10;;;4.33;;
5058;SDS011;2548;52.050;11.036;2023-06-24T14:55:08;4.00;;;3.70;;
5058;SDS011;2548;52.050;11.036;2023-06-24T14:57:35;4.93;;;4.40;;
5058;SDS011;2548;52.050;11.036;2023-06-24T15:00:05;3.83;;;3.53;;
5058;SDS011;2548;52.050;11.036;2023-06-24T15:02:37;3.80;;;3.60;;
5058;SDS011;2548;52.050;11.036;2023-06-24T15:05:05;4.80;;;3.93;;